Adams, NE (68301)

5:24 AM CDT on April 28, 2017 (GMT -0500)
County | | Change Station

Elev 1400 ft 40.58 °N, 96.67 °W | Updated 28 seconds ago

Rain
Rain
45.9 °F
Feels Like 41 °F
N
10.0
Wind Variable Wind from East

Today
High -- | Low -- °F
--% Chance of Precip.
Yesterday
High -- | Low -- °F
Precip. -- in
Pressure 29.71 in
Visibility 5.0 miles
Clouds Scattered Clouds 3400 ft
Mostly Cloudy 4000 ft
Overcast 4800 ft
Windchill 41 °F
Dew Point 45 °F
Humidity 98%
Rainfall 0.23 in
Snow Depth Not available.
6:28 AM 8:18 PM
Waxing Crescent, 6% visible
METAR KBIE 280955Z AUTO 09010G14KT 5SM RA SCT034 BKN040 OVC048 09/08 A2971 RMK AO2 P0014 T00900081
Pressure 29.71 in
Visibility 5.0 miles
Clouds Scattered Clouds 3400 ft
Mostly Cloudy 4000 ft
Overcast 4800 ft
Windchill 41 °F
Dew Point 45 °F
Humidity 98%
Rainfall 0.23 in
Snow Depth Not available.
6:28 AM 8:18 PM
Waxing Crescent, 6% visible
METAR KBIE 280955Z AUTO 09010G14KT 5SM RA SCT034 BKN040 OVC048 09/08 A2971 RMK AO2 P0014 T00900081

Get Severe Weather Alerts

Thanks for signing up!

Be on the lookout for a verification email in your inbox.

You'll start receiving the daily forecast at 8 AM.

×

10-Day Weather Forecast

Almanac

Astronomy

Apr. 28, 2017 Rise Set
Actual Time
Civil Twilight
Nautical Twilight
Astronomical Twilight
Moon
Length of Visible Light
Length of Day
Tomorrow will be .
, % of the Moon is Illuminated

Today's Extremes

State Highs State Lows

Community

WunderPhotos

WunderBlog® & News

Nearby

Air Quality

  Air Quality AQ Index Pollutant
Not available.

Snow Depth

Station Depth Elevation

Earthquake Activity

City Distance Mag. Time & Date
Minimum magnitude displayed is 2.5.

Coastal Water Temperatures

Place Temperature

Stations

Nearby Weather Stations

Station Location Temp. Windchill Dew Point Humidity Wind Precip. Elev Updated Type
                   

Watches & Warnings

There are currently no watches in effect.